createdAt,value
2023-04-17T00:05:58.540Z,10.63
2023-04-17T00:21:00.359Z,11.80
2023-04-17T00:36:02.066Z,11.83
2023-04-17T01:06:06.177Z,10.17
2023-04-17T01:21:07.931Z,11.43
2023-04-17T01:36:09.770Z,10.67
2023-04-17T01:51:11.498Z,10.63
2023-04-17T02:06:13.324Z,11.43
2023-04-17T02:21:15.273Z,10.50
2023-04-17T02:36:17.057Z,10.57
2023-04-17T02:51:18.897Z,11.73
2023-04-17T03:06:21.753Z,11.13
2023-04-17T03:21:23.566Z,11.17
2023-04-17T03:36:27.275Z,10.53
2023-04-17T03:51:29.386Z,10.37
2023-04-17T04:21:33.123Z,10.17
2023-04-17T04:36:42.062Z,10.73
2023-04-17T04:51:43.756Z,10.77
2023-04-17T05:06:45.788Z,11.83
2023-04-17T05:21:47.681Z,10.73
2023-04-17T05:36:49.296Z,9.20
2023-04-17T05:51:51.095Z,10.93
2023-04-17T06:06:52.901Z,11.33
2023-04-17T06:21:54.657Z,9.73
2023-04-17T06:36:58.344Z,10.67
2023-04-17T06:52:00.764Z,9.33
2023-04-17T07:07:02.531Z,10.00
2023-04-17T07:22:05.764Z,11.07
2023-04-17T07:37:07.519Z,12.97
2023-04-17T07:52:09.200Z,10.97
2023-04-17T08:07:11.430Z,12.37
2023-04-17T08:22:14.603Z,14.83
2023-04-17T08:37:16.322Z,16.17
2023-04-17T08:52:17.956Z,13.87
2023-04-17T09:07:31.970Z,13.33
2023-04-17T09:37:51.029Z,12.83
2023-04-17T09:52:54.788Z,13.47
2023-04-17T10:07:56.928Z,13.43
2023-04-17T10:22:58.682Z,13.20
2023-04-17T10:38:06.352Z,11.83
2023-04-17T10:53:08.124Z,15.30
2023-04-17T11:08:11.086Z,15.93
2023-04-17T11:23:13.817Z,15.67
2023-04-17T11:38:21.793Z,17.63
2023-04-17T11:53:24.845Z,15.17
2023-04-17T12:18:37.519Z,17.27
2023-04-17T12:33:39.142Z,15.50
2023-04-17T12:48:41.087Z,19.40
2023-04-17T13:03:42.933Z,16.97
2023-04-17T13:18:44.853Z,16.67
2023-04-17T13:33:46.533Z,17.27
2023-04-17T13:48:48.341Z,15.47
2023-04-17T14:03:50.133Z,14.97
2023-04-17T14:18:52.148Z,15.37
2023-04-17T14:33:54.535Z,16.43
2023-04-17T14:48:56.456Z,15.40
2023-04-17T15:03:58.431Z,15.73
2023-04-17T15:19:00.584Z,14.27
2023-04-17T15:34:02.276Z,15.17
2023-04-17T15:49:08.431Z,15.33
2023-04-17T16:04:23.351Z,15.43
2023-04-17T16:19:28.733Z,16.67
2023-04-17T16:34:30.481Z,13.53
2023-04-17T16:49:32.161Z,14.37
2023-04-17T17:04:33.922Z,15.20
2023-04-17T17:19:35.676Z,13.93
2023-04-17T17:34:37.387Z,12.60
2023-04-17T17:49:39.115Z,17.23
2023-04-17T18:04:41.145Z,16.10
2023-04-17T18:19:44.549Z,14.87
2023-04-17T18:34:49.266Z,15.53
2023-04-17T18:49:54.272Z,11.57
2023-04-17T19:04:56.463Z,12.57
2023-04-17T19:19:58.235Z,13.40
2023-04-17T19:50:01.436Z,15.10
2023-04-17T20:20:05.471Z,10.57
2023-04-17T20:50:27.465Z,14.23
2023-04-17T21:05:29.341Z,11.73
2023-04-17T21:20:31.050Z,11.17
2023-04-17T21:35:32.773Z,12.90
2023-04-17T21:50:36.347Z,12.83
2023-04-17T22:05:38.134Z,13.63
2023-04-17T22:20:40.165Z,13.87
2023-04-17T22:35:41.781Z,14.93
2023-04-17T22:50:43.879Z,13.73
2023-04-17T23:05:45.619Z,12.23
2023-04-17T23:20:47.447Z,13.00
2023-04-17T23:35:49.135Z,12.67
2023-04-17T23:50:50.957Z,13.53
